Date,TemperatureHighF,TemperatureAvgF,TemperatureLowF,DewpointHighF,DewpointAvgF,DewpointLowF,HumidityHigh,HumidityAvg,HumidityLow,PressureMaxIn,PressureMinIn,WindSpeedMaxMPH,WindSpeedAvgMPH,GustSpeedMaxMPH,PrecipitationSumIn
2013-2-1,3.3,-3.7,-11.6,-0.2,-10.4,-17.5,85,72,54,30.37,30.09,15,4,16,0.00
2013-2-2,11.7,5.8,0.3,7.0,0.4,-3.9,87,78,63,30.23,30.01,11,2,13,0.00
2013-2-3,13.0,9.8,3.4,8.1,4.5,-0.9,92,79,69,30.11,30.00,18,5,19,0.00
2013-2-4,15.3,10.0,2.8,11.8,3.0,-3.3,88,73,59,30.11,29.75,15,3,15,0.00
2013-2-5,28.2,22.3,10.0,24.5,16.7,6.4,92,79,59,30.09,29.65,18,5,18,0.01
2013-2-6,25.2,16.5,7.2,21.9,13.0,4.2,89,86,81,30.11,29.96,12,3,13,0.00
2013-2-7,27.6,25.3,23.5,23.4,21.9,20.8,93,87,78,30.26,30.00,19,5,19,0.01
2013-2-8,27.7,22.5,13.9,22.4,15.8,10.9,92,76,59,30.39,30.21,17,3,17,0.00
2013-2-9,32.7,29.0,25.2,29.1,25.5,21.0,92,87,83,30.21,29.93,21,6,21,0.00
2013-2-10,32.7,30.1,27.8,31.9,28.4,25.3,97,93,86,29.93,29.26,18,6,19,0.01
2013-2-11,29.8,25.1,16.4,29.0,20.7,12.6,97,83,74,30.04,29.33,31,10,31,0.00
2013-2-12,34.4,24.4,14.4,24.2,18.5,10.6,87,78,64,30.04,29.80,22,6,22,0.03
2013-2-13,39.4,29.3,21.8,31.8,24.8,18.1,96,84,63,29.80,29.54,17,4,17,0.09
2013-2-14,32.3,25.7,14.3,31.3,18.0,3.5,96,75,39,30.19,29.58,27,5,27,0.11
2013-2-15,18.1,11.4,5.4,5.6,3.0,0.1,81,69,53,30.33,30.19,18,6,18,0.00
2013-2-16,19.0,10.1,2.7,7.7,3.8,-1.8,94,75,59,30.29,30.13,9,1,9,0.00
2013-2-17,31.9,22.5,9.7,23.6,15.3,5.1,82,74,65,30.13,29.61,26,5,26,0.00
2013-2-18,32.9,23.7,9.3,30.0,18.2,3.2,89,79,73,29.82,29.50,28,8,29,0.00
2013-2-19,9.2,5.6,1.9,3.2,-2.8,-6.1,79,68,59,30.41,29.82,31,9,31,0.00
2013-2-20,16.2,6.0,-4.0,3.9,-2.0,-8.9,81,69,56,30.51,30.41,11,2,12,0.00
2013-2-21,22.8,14.3,3.1,16.5,6.7,-1.0,90,72,59,30.48,30.11,16,4,17,0.00
2013-2-22,26.6,23.1,20.0,24.2,20.5,16.3,93,90,80,30.11,29.86,13,4,14,0.07
2013-2-23,32.0,24.8,20.2,26.1,21.1,16.8,92,86,75,29.96,29.84,13,4,13,0.02
2013-2-24,36.3,23.8,11.8,23.6,17.8,9.4,92,79,59,30.11,29.96,11,1,11,0.00
2013-2-25,36.6,28.0,20.9,24.4,21.4,17.8,88,77,60,30.11,30.01,7,0,7,0.00
2013-2-26,35.7,26.0,14.0,27.5,21.4,11.9,93,83,71,30.06,29.88,18,4,19,0.00
2013-2-27,38.9,31.6,27.6,26.6,25.0,22.4,86,77,57,30.03,29.87,23,6,23,0.00
2013-2-28,30.7,28.4,23.8,23.2,21.0,16.7,81,74,68,30.24,30.02,19,5,19,0.00